| time (UTC) | temp F | wind direction | speed knots | gust knots | rain 1hr in | rain 24hr in | rain mn in | humidity % | barometer mb |
| 20260503192003 | 64 | 208 | 1.7 | 6.1 | 0.00 | 0.00 | 0.00 | 59 | 1011.9 |
| 20260503191004 | 65 | 157 | 1.7 | 3.5 | 0.00 | 0.00 | 0.00 | 59 | 1011.9 |
| 20260503190003 | 64 | 216 | 0.9 | 4.3 | 0.00 | 0.00 | 0.00 | 60 | 1011.9 |
| 20260503185004 | 64 | 209 | 0.9 | 6.1 | 0.00 | 0.00 | 0.00 | 60 | 1011.9 |
| 20260503183003 | 63 | 199 | 0.9 | 6.1 | 0.00 | 0.00 | 0.00 | 62 | 1011.9 |
| 20260503182004 | 63 | 189 | 0.9 | 5.2 | 0.00 | 0.00 | 0.00 | 63 | 1012.0 |
| 20260503181004 | 63 | 223 | 1.7 | 5.2 | 0.00 | 0.00 | 0.00 | 64 | 1012.0 |
| 20260503180005 | 62 | 219 | 3.5 | 6.1 | 0.00 | 0.00 | 0.00 | 66 | 1012.1 |
| 20260503175004 | 60 | 205 | 4.3 | 6.1 | 0.00 | 0.00 | 0.00 | 71 | 1012.1 |
| 20260503174005 | 59 | 130 | 3.5 | 3.5 | 0.00 | 0.00 | 0.00 | 73 | 1012.1 |
| 20260503173003 | 59 | 205 | 2.6 | 4.3 | 0.00 | 0.00 | 0.00 | 73 | 1012.1 |
| 20260503172004 | 60 | 205 | 0.9 | 5.2 | 0.00 | 0.00 | 0.00 | 72 | 1012.0 |
| 20260503171004 | 60 | 168 | 0.9 | 3.5 | 0.00 | 0.00 | 0.00 | 72 | 1011.9 |
| 20260503151004 | 57 | 9 | 0.0 | 1.7 | 0.00 | 0.00 | 0.00 | 80 | 1011.5 |
| 20260503131005 | 55 | 198 | 0.0 | 0.0 | 0.00 | 0.00 | 0.00 | 80 | 1010.2 |
| 20260503081003 | 56 | 111 | 0.0 | 0.0 | 0.00 | 0.00 | 0.00 | 77 | 1010.7 |
| 20260503072004 | 57 | 89 | 0.0 | 0.0 | 0.00 | 0.00 | 0.00 | 75 | 1010.9 |
| 20260503055004 | 57 | 75 | 0.0 | 0.0 | 0.00 | 0.00 | 0.00 | 75 | 1011.1 |
| 20260503054005 | 58 | 75 | 0.0 | 0.0 | 0.00 | 0.00 | 0.00 | 75 | 1011.2 |
| 20260503053108 | 58 | 75 | 0.0 | 0.0 | 0.00 | 0.00 | 0.00 | 75 | 1011.2 |
| 20260503052004 | 58 | 75 | 0.0 | 0.0 | 0.00 | 0.00 | 0.00 | 75 | 1011.3 |
| 20260503051003 | 58 | 75 | 0.0 | 1.7 | 0.00 | 0.00 | 0.00 | 75 | 1011.4 |
| 20260503050005 | 58 | 71 | 0.0 | 2.6 | 0.00 | 0.00 | 0.00 | 74 | 1011.2 |
| 20260503045004 | 58 | 150 | 0.9 | 2.6 | 0.00 | 0.00 | 0.00 | 74 | 1011.2 |
| 20260503044004 | 58 | 173 | 0.0 | 0.9 | 0.00 | 0.00 | 0.00 | 74 | 1011.1 |
| 20260503043003 | 58 | 85 | 0.0 | 1.7 | 0.00 | 0.00 | 0.00 | 74 | 1011.0 |
| 20260503042004 | 58 | 66 | 0.9 | 2.6 | 0.00 | 0.00 | 0.00 | 74 | 1011.0 |
| 20260503041003 | 58 | 59 | 0.0 | 2.6 | 0.00 | 0.00 | 0.00 | 73 | 1010.9 |
| 20260503035003 | 58 | 14 | 0.9 | 4.3 | 0.00 | 0.00 | 0.00 | 73 | 1010.6 |
| 20260503034004 | 59 | 237 | 0.9 | 3.5 | 0.00 | 0.00 | 0.00 | 72 | 1010.5 |
| 20260503032004 | 59 | 253 | 0.9 | 3.5 | 0.00 | 0.00 | 0.00 | 71 | 1010.3 |
| 20260503031004 | 60 | 249 | 0.0 | 2.6 | 0.00 | 0.00 | 0.00 | 72 | 1010.3 |
| 20260503030004 | 60 | 211 | 3.5 | 3.5 | 0.00 | 0.00 | 0.00 | 72 | 1010.2 |
| 20260503025004 | 60 | 66 | 0.9 | 4.3 | 0.00 | 0.00 | 0.00 | 72 | 1010.0 |
| 20260503024003 | 61 | 317 | 0.9 | 4.3 | 0.00 | 0.00 | 0.00 | 71 | 1009.9 |
| 20260503023004 | 61 | 68 | 0.0 | 3.5 | 0.00 | 0.00 | 0.00 | 70 | 1009.8 |
| 20260503022003 | 62 | 142 | 1.7 | 4.3 | 0.00 | 0.00 | 0.00 | 69 | 1009.8 |
| 20260503021003 | 62 | 187 | 0.9 | 4.3 | 0.00 | 0.00 | 0.00 | 69 | 1009.8 |
| 20260503020005 | 63 | 258 | 0.9 | 2.6 | 0.00 | 0.00 | 0.00 | 69 | 1009.8 |
| 20260503015004 | 63 | 160 | 1.7 | 5.2 | 0.00 | 0.00 | 0.00 | 68 | 1009.7 |
| 20260503014004 | 64 | 234 | 0.9 | 4.3 | 0.00 | 0.00 | 0.00 | 67 | 1009.8 |
| 20260503013005 | 65 | 21 | 0.9 | 5.2 | 0.00 | 0.00 | 0.00 | 67 | 1009.8 |
| 20260503012004 | 65 | 360 | 0.0 | 5.2 | 0.00 | 0.00 | 0.00 | 66 | 1009.8 |
| 20260503011004 | 66 | 360 | 0.9 | 5.2 | 0.00 | 0.00 | 0.00 | 65 | 1009.8 |
| 20260503010005 | 67 | 360 | 4.3 | 4.3 | 0.00 | 0.00 | 0.00 | 64 | 1009.8 |
| 20260503003005 | 70 | 360 | 3.5 | 5.2 | 0.00 | 0.00 | 0.00 | 60 | 1009.7 |
| 20260503002004 | 70 | 203 | 1.7 | 6.1 | 0.00 | 0.00 | 0.00 | 58 | 1009.7 |
| 20260503001004 | 71 | 241 | 1.7 | 4.3 | 0.00 | 0.00 | 0.00 | 57 | 1009.8 |
| 20260503000004 | 72 | 153 | 3.5 | 7.8 | 0.00 | 0.00 | 0.00 | 57 | 1009.8 |
| 20260502235004 | 72 | 255 | 0.0 | 5.2 | 0.00 | 0.00 | 0.00 | 57 | 1009.8 |
| 20260502234004 | 73 | 76 | 0.9 | 4.3 | 0.00 | 0.00 | 0.00 | 56 | 1009.8 |
| 20260502233003 | 73 | 104 | 2.6 | 7.0 | 0.00 | 0.00 | 0.00 | 56 | 1009.9 |
| 20260502232005 | 74 | 266 | 5.2 | 7.8 | 0.00 | 0.00 | 0.00 | 55 | 1009.9 |
| 20260502231004 | 75 | 136 | 0.9 | 5.2 | 0.00 | 0.00 | 0.00 | 54 | 1010.0 |
| 20260502230004 | 75 | 227 | 0.9 | 6.1 | 0.00 | 0.00 | 0.00 | 53 | 1010.1 |
| 20260502225004 | 75 | 64 | 0.9 | 5.2 | 0.00 | 0.00 | 0.00 | 53 | 1010.2 |
| 20260502224004 | 75 | 181 | 0.9 | 5.2 | 0.00 | 0.00 | 0.00 | 55 | 1010.4 |
| 20260502223004 | 76 | 46 | 1.7 | 6.1 | 0.00 | 0.00 | 0.00 | 53 | 1010.4 |
| 20260502222005 | 77 | 209 | 0.9 | 6.1 | 0.00 | 0.00 | 0.00 | 53 | 1010.6 |
| 20260502221004 | 76 | 46 | 6.1 | 6.1 | 0.00 | 0.00 | 0.00 | 53 | 1010.7 |
| 20260502220004 | 75 | 182 | 0.9 | 5.2 | 0.00 | 0.00 | 0.00 | 55 | 1010.8 |
| 20260502215003 | 76 | 53 | 1.7 | 4.3 | 0.00 | 0.00 | 0.00 | 54 | 1010.9 |
| 20260502214004 | 76 | 165 | 0.9 | 3.5 | 0.00 | 0.00 | 0.00 | 53 | 1011.0 |
| 20260502213004 | 76 | 259 | 0.9 | 7.0 | 0.00 | 0.00 | 0.00 | 54 | 1011.1 |
| 20260502211005 | 75 | 256 | 1.7 | 2.6 | 0.00 | 0.00 | 0.00 | 54 | 1011.1 |
| 20260502210004 | 74 | 37 | 1.7 | 3.5 | 0.00 | 0.00 | 0.00 | 56 | 1011.4 |
| 20260502205004 | 73 | 100 | 1.7 | 3.5 | 0.00 | 0.00 | 0.00 | 57 | 1011.5 |
| 20260502204004 | 72 | 74 | 1.7 | 4.3 | 0.00 | 0.00 | 0.00 | 59 | 1011.7 |
| 20260502203004 | 72 | 169 | 0.9 | 3.5 | 0.00 | 0.00 | 0.00 | 59 | 1011.8 |
| 20260502201004 | 71 | 42 | 2.6 | 4.3 | 0.00 | 0.00 | 0.00 | 62 | 1012.0 |
| 20260502200004 | 70 | 68 | 1.7 | 3.5 | 0.00 | 0.00 | 0.00 | 65 | 1012.2 |
| 20260502194004 | 67 | 35 | 1.7 | 3.5 | 0.00 | 0.00 | 0.00 | 68 | 1012.4 |